createdAt,value
2018-06-30T00:00:27.967Z,96751.00
2018-06-30T00:03:09.292Z,96772.00
2018-06-30T00:05:50.684Z,96766.00
2018-06-30T00:08:32.127Z,96768.00
2018-06-30T00:11:13.545Z,96774.00
2018-06-30T00:13:56.455Z,96767.00
2018-06-30T00:16:37.810Z,96770.00
2018-06-30T00:19:19.190Z,96763.00
2018-06-30T00:22:00.620Z,96754.00
2018-06-30T00:24:42.108Z,96757.00
2018-06-30T00:27:28.482Z,96756.00
2018-06-30T00:30:09.875Z,96767.00
2018-06-30T00:32:53.419Z,96766.00
2018-06-30T00:35:34.911Z,96759.00
2018-06-30T00:38:16.697Z,96775.00
2018-06-30T00:40:58.501Z,96777.00
2018-06-30T00:43:39.953Z,96780.00
2018-06-30T00:46:21.327Z,96783.00
2018-06-30T00:49:03.498Z,96786.00
2018-06-30T00:51:45.204Z,96787.00
2018-06-30T00:54:27.407Z,96778.00
2018-06-30T00:57:08.976Z,96780.00
2018-06-30T00:59:50.370Z,96782.00
2018-06-30T01:02:31.726Z,96789.00
2018-06-30T01:05:13.229Z,96800.00
2018-06-30T01:07:55.332Z,96798.00
2018-06-30T01:10:36.793Z,96812.00
2018-06-30T01:13:18.107Z,96816.00
2018-06-30T01:15:59.503Z,96817.00
2018-06-30T01:18:40.874Z,96817.00
2018-06-30T01:21:22.288Z,96815.00
2018-06-30T01:24:03.806Z,96819.00
2018-06-30T01:26:45.547Z,96823.00
2018-06-30T01:29:28.081Z,96821.00
2018-06-30T01:32:09.454Z,96833.00
2018-06-30T01:34:51.017Z,96822.00
2018-06-30T01:37:33.183Z,96826.00
2018-06-30T01:40:14.577Z,96827.00
2018-06-30T01:42:56.389Z,96824.00
2018-06-30T01:45:37.875Z,96815.00
2018-06-30T01:48:19.273Z,96830.00
2018-06-30T01:51:00.826Z,96833.00
2018-06-30T01:53:45.951Z,96841.00
2018-06-30T01:56:27.960Z,96843.00
2018-06-30T02:02:31.784Z,96842.00
2018-06-30T02:05:13.182Z,96847.00
2018-06-30T02:07:55.137Z,96845.00
2018-06-30T02:10:36.464Z,96853.00
2018-06-30T02:13:17.790Z,96858.00
2018-06-30T02:15:59.059Z,96845.00
2018-06-30T02:18:40.429Z,96853.00
2018-06-30T02:21:23.332Z,96856.00
2018-06-30T02:24:04.748Z,96859.00
2018-06-30T02:26:46.111Z,96864.00
2018-06-30T02:29:27.469Z,96866.00
2018-06-30T02:32:08.868Z,96863.00
2018-06-30T02:34:50.593Z,96867.00
2018-06-30T02:37:31.959Z,96869.00
2018-06-30T02:40:13.312Z,96863.00
2018-06-30T02:42:55.673Z,96885.00
2018-06-30T02:45:37.117Z,96885.00
2018-06-30T02:48:18.586Z,96877.00
2018-06-30T02:51:00.303Z,96886.00
2018-06-30T02:53:41.717Z,96893.00
2018-06-30T02:56:23.344Z,96889.00
2018-06-30T02:59:04.687Z,96903.00
2018-06-30T03:01:46.044Z,96893.00
2018-06-30T03:04:27.322Z,96907.00
2018-06-30T03:07:09.276Z,96904.00
2018-06-30T03:09:51.500Z,96908.00
2018-06-30T03:12:33.275Z,96908.00
2018-06-30T03:15:14.604Z,96912.00
2018-06-30T03:17:55.983Z,96908.00
2018-06-30T03:20:37.328Z,96915.00
2018-06-30T03:23:19.299Z,96912.00
2018-06-30T03:26:00.612Z,96906.00
2018-06-30T03:28:42.085Z,96915.00
2018-06-30T03:31:24.326Z,96905.00
2018-06-30T03:34:05.760Z,96912.00
2018-06-30T03:36:47.039Z,96909.00
2018-06-30T03:39:28.459Z,96915.00
2018-06-30T03:42:09.797Z,96920.00
2018-06-30T03:44:51.954Z,96916.00
2018-06-30T03:47:33.363Z,96918.00
2018-06-30T03:50:14.602Z,96911.00
2018-06-30T03:52:56.096Z,96908.00
2018-06-30T03:55:37.680Z,96917.00
2018-06-30T03:58:19.165Z,96916.00
2018-06-30T04:01:00.531Z,96921.00
2018-06-30T04:03:41.836Z,96922.00
2018-06-30T04:06:23.484Z,96925.00
2018-06-30T04:09:08.321Z,96916.00
2018-06-30T04:11:51.404Z,96917.00
2018-06-30T04:17:44.393Z,96924.00
2018-06-30T04:20:25.979Z,96926.00
2018-06-30T04:23:07.215Z,96933.00
2018-06-30T04:25:48.487Z,96929.00
2018-06-30T04:28:30.051Z,96929.00
2018-06-30T04:31:11.386Z,96922.00
2018-06-30T04:33:53.303Z,96922.00
2018-06-30T04:36:34.583Z,96929.00
2018-06-30T04:39:15.874Z,96925.00
2018-06-30T04:41:57.134Z,96928.00
2018-06-30T04:44:38.321Z,96928.00
2018-06-30T04:47:20.518Z,96925.00
2018-06-30T04:53:13.193Z,96934.00
2018-06-30T04:55:54.721Z,96939.00
2018-06-30T04:58:35.972Z,96938.00
2018-06-30T05:01:17.412Z,96943.00
2018-06-30T05:03:58.820Z,96936.00
2018-06-30T05:06:40.169Z,96943.00
2018-06-30T05:09:21.961Z,96948.00
2018-06-30T05:12:03.343Z,96952.00
2018-06-30T05:14:44.504Z,96951.00
2018-06-30T05:17:25.984Z,96952.00
2018-06-30T05:20:07.555Z,96950.00
2018-06-30T05:22:48.864Z,96961.00
2018-06-30T05:25:30.336Z,96953.00
2018-06-30T05:28:11.680Z,96959.00
2018-06-30T05:30:53.232Z,96965.00
2018-06-30T05:33:35.064Z,96976.00
2018-06-30T05:36:16.372Z,96971.00
2018-06-30T05:38:57.589Z,96975.00
2018-06-30T05:41:39.720Z,96969.00
2018-06-30T05:44:22.009Z,96980.00
2018-06-30T05:47:03.309Z,96975.00
2018-06-30T05:49:44.669Z,96980.00
2018-06-30T05:52:26.133Z,96990.00
2018-06-30T05:55:07.347Z,96998.00
2018-06-30T05:57:48.812Z,96986.00
2018-06-30T06:00:30.221Z,96997.00
2018-06-30T06:03:11.831Z,96988.00
2018-06-30T06:05:54.808Z,97000.00
2018-06-30T06:08:36.304Z,97004.00
2018-06-30T06:11:17.710Z,97004.00
2018-06-30T06:13:59.344Z,97012.00
2018-06-30T06:16:40.805Z,97017.00
2018-06-30T06:19:23.281Z,97009.00
2018-06-30T06:22:04.564Z,97017.00
2018-06-30T06:24:46.218Z,97017.00
2018-06-30T06:27:27.815Z,97016.00
2018-06-30T06:30:09.668Z,97010.00
2018-06-30T06:32:51.992Z,97007.00
2018-06-30T06:35:33.658Z,97022.00
2018-06-30T06:38:14.925Z,97020.00
2018-06-30T06:40:56.380Z,97018.00
2018-06-30T06:43:37.881Z,97018.00
2018-06-30T06:46:19.179Z,97013.00
2018-06-30T06:49:00.662Z,97010.00
2018-06-30T06:51:42.552Z,97019.00
2018-06-30T06:54:24.730Z,97026.00
2018-06-30T06:57:06.113Z,97015.00
2018-06-30T06:59:47.292Z,97018.00
2018-06-30T07:02:28.710Z,97039.00
2018-06-30T07:05:10.149Z,97036.00
2018-06-30T07:07:52.191Z,97037.00
2018-06-30T07:10:33.659Z,97034.00
2018-06-30T07:13:15.755Z,97039.00
2018-06-30T07:15:57.128Z,97041.00
2018-06-30T07:18:38.507Z,97041.00
2018-06-30T07:21:20.588Z,97042.00
2018-06-30T07:24:02.105Z,97035.00
2018-06-30T07:26:43.694Z,97034.00
2018-06-30T07:29:26.246Z,97033.00
2018-06-30T07:32:07.616Z,97045.00
2018-06-30T07:34:49.164Z,97029.00
2018-06-30T07:37:30.548Z,97041.00
2018-06-30T07:40:11.800Z,97046.00
2018-06-30T07:42:53.336Z,97030.00
2018-06-30T07:45:34.821Z,97033.00
2018-06-30T07:48:16.622Z,97030.00
2018-06-30T07:50:57.981Z,97021.00
2018-06-30T07:53:39.477Z,97036.00
2018-06-30T07:56:21.368Z,97029.00
2018-06-30T07:59:03.672Z,97030.00
2018-06-30T08:01:45.177Z,97040.00
2018-06-30T08:04:26.600Z,97044.00
2018-06-30T08:07:08.111Z,97047.00
2018-06-30T08:09:49.673Z,97049.00
2018-06-30T08:12:30.956Z,97050.00
2018-06-30T08:15:12.447Z,97057.00
2018-06-30T08:17:55.127Z,97052.00
2018-06-30T08:20:36.581Z,97056.00
2018-06-30T08:23:18.186Z,97068.00
2018-06-30T08:25:59.711Z,97058.00
2018-06-30T08:28:41.360Z,97062.00
2018-06-30T08:31:24.165Z,97073.00
2018-06-30T08:34:05.609Z,97064.00
2018-06-30T08:36:46.697Z,97060.00
2018-06-30T08:39:27.992Z,97072.00
2018-06-30T08:42:09.852Z,97065.00
2018-06-30T08:44:51.291Z,97079.00
2018-06-30T08:47:32.612Z,97075.00
2018-06-30T08:50:13.909Z,97079.00
2018-06-30T08:52:55.670Z,97080.00
2018-06-30T08:55:38.478Z,97078.00
2018-06-30T08:58:19.860Z,97092.00
2018-06-30T09:01:01.177Z,97087.00
2018-06-30T09:03:42.556Z,97084.00
2018-06-30T09:06:25.161Z,97074.00
2018-06-30T09:09:09.833Z,97090.00
2018-06-30T09:11:52.390Z,97085.00
2018-06-30T09:14:33.695Z,97090.00
2018-06-30T09:17:15.179Z,97093.00
2018-06-30T09:19:57.156Z,97096.00
2018-06-30T09:22:38.649Z,97107.00
2018-06-30T09:25:19.948Z,97116.00
2018-06-30T09:28:01.316Z,97108.00
2018-06-30T09:30:42.629Z,97109.00
2018-06-30T09:33:24.301Z,97116.00
2018-06-30T09:36:05.783Z,97112.00
2018-06-30T09:38:47.340Z,97116.00
2018-06-30T09:41:28.716Z,97116.00
2018-06-30T09:44:10.213Z,97122.00
2018-06-30T09:46:52.203Z,97126.00
2018-06-30T09:49:33.651Z,97123.00
2018-06-30T09:52:14.987Z,97119.00
2018-06-30T09:54:56.777Z,97125.00
2018-06-30T09:57:38.332Z,97129.00
2018-06-30T10:00:25.100Z,97134.00
2018-06-30T10:03:06.843Z,97131.00
2018-06-30T10:05:48.123Z,97129.00
2018-06-30T10:08:29.155Z,97134.00
2018-06-30T10:11:10.463Z,97129.00
2018-06-30T10:13:52.400Z,97128.00
2018-06-30T10:16:35.392Z,97124.00
2018-06-30T10:19:17.043Z,97122.00
2018-06-30T10:21:58.605Z,97130.00
2018-06-30T10:24:40.089Z,97131.00
2018-06-30T10:27:22.510Z,97128.00
2018-06-30T10:30:04.760Z,97131.00
2018-06-30T10:32:46.227Z,97125.00
2018-06-30T10:35:27.582Z,97121.00
2018-06-30T10:38:08.836Z,97126.00
2018-06-30T10:40:50.293Z,97129.00
2018-06-30T10:43:31.672Z,97134.00
2018-06-30T10:46:13.100Z,97137.00
2018-06-30T10:48:56.129Z,97128.00
2018-06-30T10:51:37.653Z,97126.00
2018-06-30T10:54:18.982Z,97132.00
2018-06-30T10:57:00.540Z,97130.00
2018-06-30T10:59:42.668Z,97128.00
2018-06-30T11:02:25.960Z,97134.00
2018-06-30T11:05:07.753Z,97136.00
2018-06-30T11:07:49.081Z,97129.00
2018-06-30T11:10:30.516Z,97120.00
2018-06-30T11:13:11.889Z,97119.00
2018-06-30T11:15:55.944Z,97128.00
2018-06-30T11:18:37.277Z,97109.00
2018-06-30T11:21:18.593Z,97112.00
2018-06-30T11:24:00.627Z,97112.00
2018-06-30T11:26:42.372Z,97112.00
2018-06-30T11:29:24.993Z,97100.00
2018-06-30T11:32:06.656Z,97105.00
2018-06-30T11:34:47.879Z,97102.00
2018-06-30T11:37:29.216Z,97097.00
2018-06-30T11:40:10.603Z,97099.00
2018-06-30T11:42:52.681Z,97097.00
2018-06-30T11:45:35.343Z,97102.00
2018-06-30T11:48:16.721Z,97103.00
2018-06-30T11:50:58.084Z,97099.00
2018-06-30T11:53:39.475Z,97102.00
2018-06-30T11:56:20.836Z,97102.00
2018-06-30T11:59:02.480Z,97095.00
2018-06-30T12:01:44.202Z,97105.00
2018-06-30T12:04:25.948Z,97097.00
2018-06-30T12:07:08.428Z,97102.00
2018-06-30T12:09:53.224Z,97104.00
2018-06-30T12:12:35.192Z,97106.00
2018-06-30T12:15:16.544Z,97104.00
2018-06-30T12:17:57.936Z,97105.00
2018-06-30T12:20:40.259Z,97093.00
2018-06-30T12:23:21.980Z,97107.00
2018-06-30T12:26:03.510Z,97103.00
2018-06-30T12:28:46.197Z,97103.00
2018-06-30T12:31:28.833Z,97108.00
2018-06-30T12:34:11.119Z,97108.00
2018-06-30T12:36:55.278Z,97106.00
2018-06-30T12:39:37.737Z,97102.00
2018-06-30T12:42:19.514Z,97110.00
2018-06-30T12:45:01.278Z,97110.00
2018-06-30T12:47:43.978Z,97120.00
2018-06-30T12:50:26.352Z,97117.00
2018-06-30T12:53:10.015Z,97117.00
2018-06-30T12:55:53.167Z,97115.00
2018-06-30T12:58:35.776Z,97117.00
2018-06-30T13:01:17.349Z,97128.00
2018-06-30T13:03:58.808Z,97117.00
2018-06-30T13:07:06.647Z,97121.00
2018-06-30T13:09:50.108Z,97113.00
2018-06-30T13:12:32.620Z,97110.00
2018-06-30T13:15:17.568Z,97120.00
2018-06-30T13:17:59.781Z,97122.00
2018-06-30T13:20:41.124Z,97114.00
2018-06-30T13:23:23.125Z,97108.00
2018-06-30T13:26:06.174Z,97122.00
2018-06-30T13:28:48.053Z,97116.00
2018-06-30T13:31:29.379Z,97122.00
2018-06-30T13:34:11.511Z,97121.00
2018-06-30T13:36:53.875Z,97131.00
2018-06-30T13:39:36.953Z,97121.00
2018-06-30T13:42:23.831Z,97124.00
2018-06-30T13:45:16.288Z,97124.00
2018-06-30T13:47:58.219Z,97115.00
2018-06-30T13:50:39.644Z,97119.00
2018-06-30T13:53:23.529Z,97119.00
2018-06-30T13:56:05.910Z,97117.00
2018-06-30T13:58:47.351Z,97118.00
2018-06-30T14:01:31.343Z,97123.00
2018-06-30T14:04:13.873Z,97127.00
2018-06-30T14:06:56.617Z,97118.00
2018-06-30T14:09:44.645Z,97125.00
2018-06-30T14:12:26.853Z,97122.00
2018-06-30T14:15:10.180Z,97129.00
2018-06-30T14:17:52.381Z,97146.00
2018-06-30T14:20:33.712Z,97134.00
2018-06-30T14:23:15.392Z,97139.00
2018-06-30T14:25:57.373Z,97135.00
2018-06-30T14:28:38.706Z,97127.00
2018-06-30T14:31:20.742Z,97131.00
2018-06-30T14:34:02.520Z,97130.00
2018-06-30T14:36:43.885Z,97133.00
2018-06-30T14:39:25.947Z,97137.00
2018-06-30T14:42:07.340Z,97129.00
2018-06-30T14:44:48.661Z,97127.00
2018-06-30T14:47:33.151Z,97124.00
2018-06-30T14:50:14.456Z,97123.00
2018-06-30T14:52:56.638Z,97122.00
2018-06-30T14:55:54.201Z,97128.00
2018-06-30T14:58:35.384Z,97135.00
2018-06-30T15:01:16.959Z,97120.00
2018-06-30T15:03:58.440Z,97126.00
2018-06-30T15:06:39.934Z,97125.00
2018-06-30T15:09:21.378Z,97131.00
2018-06-30T15:12:02.704Z,97131.00
2018-06-30T15:14:44.425Z,97124.00
2018-06-30T15:17:26.325Z,97123.00
2018-06-30T15:20:08.150Z,97120.00
2018-06-30T15:22:50.572Z,97123.00
2018-06-30T15:25:32.456Z,97124.00
2018-06-30T15:28:14.382Z,97134.00
2018-06-30T15:30:56.362Z,97126.00
2018-06-30T15:33:37.824Z,97133.00
2018-06-30T15:36:19.219Z,97130.00
2018-06-30T15:39:00.593Z,97127.00
2018-06-30T15:41:41.963Z,97136.00
2018-06-30T15:44:24.340Z,97138.00
2018-06-30T15:47:05.712Z,97135.00
2018-06-30T15:49:47.052Z,97131.00
2018-06-30T15:52:28.837Z,97129.00
2018-06-30T15:55:10.340Z,97128.00
2018-06-30T15:57:54.662Z,97136.00
2018-06-30T16:00:36.125Z,97131.00
2018-06-30T16:03:18.320Z,97132.00
2018-06-30T16:06:00.331Z,97130.00
2018-06-30T16:08:42.026Z,97131.00
2018-06-30T16:11:24.364Z,97136.00
2018-06-30T16:14:06.906Z,97139.00
2018-06-30T16:16:48.365Z,97127.00
2018-06-30T16:19:29.752Z,97130.00
2018-06-30T16:22:11.038Z,97132.00
2018-06-30T16:24:52.819Z,97134.00
2018-06-30T16:27:33.999Z,97137.00
2018-06-30T16:30:16.044Z,97123.00
2018-06-30T16:32:57.577Z,97123.00
2018-06-30T16:35:38.541Z,97117.00
2018-06-30T16:38:20.690Z,97114.00
2018-06-30T16:41:02.621Z,97132.00
2018-06-30T16:43:46.518Z,97139.00
2018-06-30T16:46:28.399Z,97122.00
2018-06-30T16:49:10.702Z,97121.00
2018-06-30T16:51:52.127Z,97127.00
2018-06-30T16:54:33.713Z,97117.00
2018-06-30T16:57:15.223Z,97115.00
2018-06-30T16:59:57.180Z,97115.00
2018-06-30T17:02:39.544Z,97112.00
2018-06-30T17:05:20.940Z,97106.00
2018-06-30T17:08:03.145Z,97107.00
2018-06-30T17:10:44.867Z,97107.00
2018-06-30T17:13:27.261Z,97108.00
2018-06-30T17:16:08.777Z,97108.00
2018-06-30T17:18:50.113Z,97117.00
2018-06-30T17:21:32.175Z,97103.00
2018-06-30T17:24:13.613Z,97115.00
2018-06-30T17:26:56.404Z,97115.00
2018-06-30T17:30:08.351Z,97117.00
2018-06-30T17:32:49.711Z,97125.00
2018-06-30T17:35:31.345Z,97126.00
2018-06-30T17:38:12.627Z,97125.00
2018-06-30T17:40:55.400Z,97124.00
2018-06-30T17:43:37.772Z,97131.00
2018-06-30T17:46:19.247Z,97131.00
2018-06-30T17:49:00.958Z,97134.00
2018-06-30T17:51:42.291Z,97131.00
2018-06-30T17:54:24.124Z,97126.00
2018-06-30T17:57:06.721Z,97143.00
2018-06-30T17:59:48.221Z,97146.00
2018-06-30T18:02:29.791Z,97142.00
2018-06-30T18:05:11.218Z,97147.00
2018-06-30T18:07:52.650Z,97151.00
2018-06-30T18:10:34.044Z,97153.00
2018-06-30T18:13:15.397Z,97151.00
2018-06-30T18:15:57.367Z,97163.00
2018-06-30T18:18:38.717Z,97164.00
2018-06-30T18:21:20.204Z,97157.00
2018-06-30T18:24:01.391Z,97165.00
2018-06-30T18:26:42.912Z,97161.00
2018-06-30T18:29:24.430Z,97166.00
2018-06-30T18:32:05.788Z,97161.00
2018-06-30T18:34:47.116Z,97170.00
2018-06-30T18:37:28.768Z,97179.00
2018-06-30T18:40:10.246Z,97177.00
2018-06-30T18:42:51.692Z,97177.00
2018-06-30T18:45:33.107Z,97184.00
2018-06-30T18:48:14.837Z,97183.00
2018-06-30T18:50:57.389Z,97186.00
2018-06-30T18:53:39.057Z,97190.00
2018-06-30T18:56:21.252Z,97197.00
2018-06-30T18:59:02.756Z,97200.00
2018-06-30T19:01:44.056Z,97200.00
2018-06-30T19:04:27.141Z,97199.00
2018-06-30T19:07:08.501Z,97205.00
2018-06-30T19:09:49.839Z,97208.00
2018-06-30T19:12:31.328Z,97203.00
2018-06-30T19:15:12.706Z,97214.00
2018-06-30T19:17:56.188Z,97204.00
2018-06-30T19:20:37.728Z,97208.00
2018-06-30T19:23:19.081Z,97207.00
2018-06-30T19:26:00.678Z,97201.00
2018-06-30T19:28:42.185Z,97213.00
2018-06-30T19:31:24.191Z,97216.00
2018-06-30T19:34:05.549Z,97217.00
2018-06-30T19:36:46.956Z,97224.00
2018-06-30T19:39:28.740Z,97225.00
2018-06-30T19:42:10.032Z,97221.00
2018-06-30T19:44:51.335Z,97222.00
2018-06-30T19:47:32.587Z,97215.00
2018-06-30T19:50:28.044Z,97224.00
2018-06-30T19:53:09.418Z,97222.00
2018-06-30T19:55:50.894Z,97224.00
2018-06-30T19:58:32.472Z,97230.00
2018-06-30T20:01:13.877Z,97230.00
2018-06-30T20:03:56.312Z,97222.00
2018-06-30T20:06:37.835Z,97230.00
2018-06-30T20:09:19.302Z,97229.00
2018-06-30T20:12:00.829Z,97220.00
2018-06-30T20:14:42.361Z,97230.00
2018-06-30T20:17:24.517Z,97230.00
2018-06-30T20:20:05.865Z,97230.00
2018-06-30T20:22:47.384Z,97234.00
2018-06-30T20:25:30.316Z,97230.00
2018-06-30T20:28:15.008Z,97241.00
2018-06-30T20:30:57.511Z,97234.00
2018-06-30T20:33:38.992Z,97236.00
2018-06-30T20:36:20.558Z,97237.00
2018-06-30T20:39:02.049Z,97229.00
2018-06-30T20:41:43.495Z,97237.00
2018-06-30T20:44:26.044Z,97245.00
2018-06-30T20:47:07.496Z,97230.00
2018-06-30T20:49:49.033Z,97235.00
2018-06-30T20:52:30.559Z,97232.00
2018-06-30T20:55:12.230Z,97242.00
2018-06-30T20:57:53.703Z,97235.00
2018-06-30T21:00:35.300Z,97240.00
2018-06-30T21:03:17.236Z,97247.00
2018-06-30T21:05:59.276Z,97244.00
2018-06-30T21:08:40.588Z,97243.00
2018-06-30T21:11:21.752Z,97245.00
2018-06-30T21:14:03.019Z,97247.00
2018-06-30T21:16:44.439Z,97253.00
2018-06-30T21:19:26.635Z,97255.00
2018-06-30T21:22:07.923Z,97239.00
2018-06-30T21:24:49.551Z,97254.00
2018-06-30T21:27:31.100Z,97248.00
2018-06-30T21:30:12.473Z,97256.00
2018-06-30T21:32:53.812Z,97263.00
2018-06-30T21:35:35.179Z,97266.00
2018-06-30T21:38:16.524Z,97268.00
2018-06-30T21:40:58.791Z,97259.00
2018-06-30T21:43:40.668Z,97261.00
2018-06-30T21:46:22.039Z,97255.00
2018-06-30T21:49:04.491Z,97260.00
2018-06-30T21:51:46.080Z,97258.00
2018-06-30T21:54:28.201Z,97255.00
2018-06-30T21:57:09.669Z,97255.00
2018-06-30T21:59:51.060Z,97258.00
2018-06-30T22:02:32.549Z,97261.00
2018-06-30T22:05:14.092Z,97258.00
2018-06-30T22:07:56.600Z,97266.00
2018-06-30T22:10:38.378Z,97249.00
2018-06-30T22:13:21.190Z,97263.00
2018-06-30T22:16:08.045Z,97261.00
2018-06-30T22:18:49.334Z,97248.00
2018-06-30T22:21:31.155Z,97256.00
2018-06-30T22:24:12.546Z,97258.00
2018-06-30T22:26:53.954Z,97249.00
2018-06-30T22:29:35.468Z,97263.00
2018-06-30T22:32:16.798Z,97255.00
2018-06-30T22:34:58.377Z,97259.00
2018-06-30T22:37:39.767Z,97257.00
2018-06-30T22:40:21.123Z,97254.00
2018-06-30T22:43:02.489Z,97243.00
2018-06-30T22:45:43.959Z,97252.00
2018-06-30T22:48:25.753Z,97254.00
2018-06-30T22:51:07.292Z,97256.00
2018-06-30T22:53:49.006Z,97261.00
2018-06-30T22:56:30.658Z,97263.00
2018-06-30T22:59:12.036Z,97274.00
2018-06-30T23:01:53.291Z,97268.00
2018-06-30T23:04:35.425Z,97266.00
2018-06-30T23:07:17.763Z,97265.00
2018-06-30T23:09:59.513Z,97266.00
2018-06-30T23:12:41.504Z,97267.00
2018-06-30T23:15:22.665Z,97269.00
2018-06-30T23:18:34.654Z,97267.00
2018-06-30T23:21:16.127Z,97271.00
2018-06-30T23:23:58.377Z,97264.00
2018-06-30T23:26:39.808Z,97268.00
2018-06-30T23:29:21.123Z,97265.00
2018-06-30T23:32:02.525Z,97262.00
2018-06-30T23:34:43.936Z,97268.00
2018-06-30T23:37:25.823Z,97268.00
2018-06-30T23:40:07.157Z,97271.00
2018-06-30T23:42:48.435Z,97267.00
2018-06-30T23:45:30.044Z,97266.00
2018-06-30T23:48:11.319Z,97266.00
2018-06-30T23:50:52.793Z,97270.00
2018-06-30T23:53:34.726Z,97276.00
2018-06-30T23:56:16.285Z,97264.00
